sensor_id;sensor_type;location;lat;lon;timestamp;P1;durP1;ratioP1;P2;durP2;ratioP2
6598;SDS011;3335;43.198;27.918;2023-03-31T00:01:26;21.10;;;11.93;;
6598;SDS011;3335;43.198;27.918;2023-03-31T00:03:53;21.70;;;12.93;;
6598;SDS011;3335;43.198;27.918;2023-03-31T00:06:29;21.60;;;12.80;;
6598;SDS011;3335;43.198;27.918;2023-03-31T00:09:02;25.20;;;13.53;;
6598;SDS011;3335;43.198;27.918;2023-03-31T00:11:29;23.90;;;13.00;;
6598;SDS011;3335;43.198;27.918;2023-03-31T00:13:56;21.70;;;12.53;;
6598;SDS011;3335;43.198;27.918;2023-03-31T00:16:25;27.73;;;13.30;;
6598;SDS011;3335;43.198;27.918;2023-03-31T00:18:52;25.40;;;13.43;;
6598;SDS011;3335;43.198;27.918;2023-03-31T00:21:20;28.30;;;13.20;;
6598;SDS011;3335;43.198;27.918;2023-03-31T00:23:54;23.93;;;13.13;;
6598;SDS011;3335;43.198;27.918;2023-03-31T00:26:22;27.07;;;14.30;;
6598;SDS011;3335;43.198;27.918;2023-03-31T00:28:50;22.13;;;12.83;;
6598;SDS011;3335;43.198;27.918;2023-03-31T00:31:18;23.83;;;13.37;;
6598;SDS011;3335;43.198;27.918;2023-03-31T00:33:47;19.57;;;11.50;;
6598;SDS011;3335;43.198;27.918;2023-03-31T00:36:15;23.80;;;13.03;;
6598;SDS011;3335;43.198;27.918;2023-03-31T00:38:45;22.70;;;11.57;;
6598;SDS011;3335;43.198;27.918;2023-03-31T00:41:13;18.57;;;11.10;;
6598;SDS011;3335;43.198;27.918;2023-03-31T00:43:40;23.93;;;11.43;;
6598;SDS011;3335;43.198;27.918;2023-03-31T00:46:10;26.07;;;10.97;;
6598;SDS011;3335;43.198;27.918;2023-03-31T00:48:43;18.70;;;11.00;;
6598;SDS011;3335;43.198;27.918;2023-03-31T00:51:16;20.10;;;11.07;;
6598;SDS011;3335;43.198;27.918;2023-03-31T00:53:46;20.03;;;11.43;;
6598;SDS011;3335;43.198;27.918;2023-03-31T00:56:19;17.30;;;10.90;;
6598;SDS011;3335;43.198;27.918;2023-03-31T00:58:47;18.67;;;10.60;;
6598;SDS011;3335;43.198;27.918;2023-03-31T01:01:15;22.17;;;11.43;;
6598;SDS011;3335;43.198;27.918;2023-03-31T01:03:44;22.77;;;11.20;;
6598;SDS011;3335;43.198;27.918;2023-03-31T01:06:14;24.17;;;11.80;;
6598;SDS011;3335;43.198;27.918;2023-03-31T01:08:46;25.63;;;13.07;;
6598;SDS011;3335;43.198;27.918;2023-03-31T01:11:14;24.83;;;12.60;;
6598;SDS011;3335;43.198;27.918;2023-03-31T01:13:44;23.93;;;12.67;;
6598;SDS011;3335;43.198;27.918;2023-03-31T01:16:14;21.93;;;12.23;;
6598;SDS011;3335;43.198;27.918;2023-03-31T01:18:41;20.73;;;11.63;;
6598;SDS011;3335;43.198;27.918;2023-03-31T01:27:24;21.73;;;12.07;;
6598;SDS011;3335;43.198;27.918;2023-03-31T01:33:19;28.23;;;11.37;;
6598;SDS011;3335;43.198;27.918;2023-03-31T01:36:18;24.17;;;12.23;;
6598;SDS011;3335;43.198;27.918;2023-03-31T01:39:19;28.23;;;12.70;;
6598;SDS011;3335;43.198;27.918;2023-03-31T01:42:10;29.53;;;12.90;;
6598;SDS011;3335;43.198;27.918;2023-03-31T01:44:43;22.63;;;11.73;;
6598;SDS011;3335;43.198;27.918;2023-03-31T01:47:18;40.30;;;12.90;;
6598;SDS011;3335;43.198;27.918;2023-03-31T01:49:53;30.47;;;12.50;;
6598;SDS011;3335;43.198;27.918;2023-03-31T01:52:27;24.47;;;12.17;;
6598;SDS011;3335;43.198;27.918;2023-03-31T01:55:01;27.60;;;13.33;;
6598;SDS011;3335;43.198;27.918;2023-03-31T01:57:34;29.67;;;13.47;;
6598;SDS011;3335;43.198;27.918;2023-03-31T02:00:05;27.33;;;12.47;;
6598;SDS011;3335;43.198;27.918;2023-03-31T02:02:36;27.67;;;12.80;;
6598;SDS011;3335;43.198;27.918;2023-03-31T02:05:06;32.90;;;13.23;;
6598;SDS011;3335;43.198;27.918;2023-03-31T02:07:39;25.90;;;12.53;;
6598;SDS011;3335;43.198;27.918;2023-03-31T02:10:12;20.27;;;12.33;;
6598;SDS011;3335;43.198;27.918;2023-03-31T02:12:43;23.27;;;12.47;;
6598;SDS011;3335;43.198;27.918;2023-03-31T02:15:13;26.40;;;12.63;;
6598;SDS011;3335;43.198;27.918;2023-03-31T02:17:47;26.63;;;12.93;;
6598;SDS011;3335;43.198;27.918;2023-03-31T02:20:17;27.80;;;13.00;;
6598;SDS011;3335;43.198;27.918;2023-03-31T02:22:47;24.43;;;12.33;;
6598;SDS011;3335;43.198;27.918;2023-03-31T02:25:18;31.03;;;14.73;;
6598;SDS011;3335;43.198;27.918;2023-03-31T02:27:51;30.47;;;12.70;;
6598;SDS011;3335;43.198;27.918;2023-03-31T02:30:21;25.43;;;12.63;;
6598;SDS011;3335;43.198;27.918;2023-03-31T02:32:51;27.90;;;12.17;;
6598;SDS011;3335;43.198;27.918;2023-03-31T02:35:18;24.70;;;12.17;;
6598;SDS011;3335;43.198;27.918;2023-03-31T02:37:47;25.73;;;13.10;;
6598;SDS011;3335;43.198;27.918;2023-03-31T02:40:15;34.93;;;13.37;;
6598;SDS011;3335;43.198;27.918;2023-03-31T02:42:44;26.53;;;12.50;;
6598;SDS011;3335;43.198;27.918;2023-03-31T02:48:10;25.57;;;13.50;;
6598;SDS011;3335;43.198;27.918;2023-03-31T02:53:57;28.70;;;14.70;;
6598;SDS011;3335;43.198;27.918;2023-03-31T02:56:36;28.27;;;14.03;;
6598;SDS011;3335;43.198;27.918;2023-03-31T02:59:16;28.90;;;15.43;;
6598;SDS011;3335;43.198;27.918;2023-03-31T03:02:00;35.33;;;15.07;;
6598;SDS011;3335;43.198;27.918;2023-03-31T03:04:48;37.53;;;15.40;;
6598;SDS011;3335;43.198;27.918;2023-03-31T03:07:29;28.90;;;14.43;;
6598;SDS011;3335;43.198;27.918;2023-03-31T03:10:03;35.73;;;13.80;;
6598;SDS011;3335;43.198;27.918;2023-03-31T03:12:37;30.50;;;14.13;;
6598;SDS011;3335;43.198;27.918;2023-03-31T03:15:09;33.57;;;15.27;;
6598;SDS011;3335;43.198;27.918;2023-03-31T03:17:43;31.27;;;14.17;;
6598;SDS011;3335;43.198;27.918;2023-03-31T03:20:13;31.73;;;14.30;;
6598;SDS011;3335;43.198;27.918;2023-03-31T03:22:41;24.27;;;13.73;;
6598;SDS011;3335;43.198;27.918;2023-03-31T03:25:09;28.90;;;12.57;;
6598;SDS011;3335;43.198;27.918;2023-03-31T03:27:37;29.83;;;12.63;;
6598;SDS011;3335;43.198;27.918;2023-03-31T03:30:06;28.07;;;13.10;;
6598;SDS011;3335;43.198;27.918;2023-03-31T03:32:34;28.03;;;13.53;;
6598;SDS011;3335;43.198;27.918;2023-03-31T03:35:03;27.90;;;13.83;;
6598;SDS011;3335;43.198;27.918;2023-03-31T03:37:31;25.00;;;13.20;;
6598;SDS011;3335;43.198;27.918;2023-03-31T03:39:58;31.23;;;14.90;;
6598;SDS011;3335;43.198;27.918;2023-03-31T03:42:25;35.20;;;16.70;;
6598;SDS011;3335;43.198;27.918;2023-03-31T03:44:52;37.20;;;17.00;;
6598;SDS011;3335;43.198;27.918;2023-03-31T03:47:19;32.30;;;16.20;;
6598;SDS011;3335;43.198;27.918;2023-03-31T03:49:46;37.40;;;17.13;;
6598;SDS011;3335;43.198;27.918;2023-03-31T03:52:15;42.40;;;16.50;;
6598;SDS011;3335;43.198;27.918;2023-03-31T03:54:42;29.37;;;14.90;;
6598;SDS011;3335;43.198;27.918;2023-03-31T03:57:09;36.27;;;14.20;;
6598;SDS011;3335;43.198;27.918;2023-03-31T03:59:36;34.67;;;14.07;;
6598;SDS011;3335;43.198;27.918;2023-03-31T04:02:03;33.07;;;13.23;;
6598;SDS011;3335;43.198;27.918;2023-03-31T04:04:30;24.50;;;13.37;;
6598;SDS011;3335;43.198;27.918;2023-03-31T04:06:57;25.37;;;12.73;;
6598;SDS011;3335;43.198;27.918;2023-03-31T04:09:25;29.97;;;14.03;;
6598;SDS011;3335;43.198;27.918;2023-03-31T04:11:52;33.63;;;13.87;;
6598;SDS011;3335;43.198;27.918;2023-03-31T04:14:19;28.47;;;13.73;;
6598;SDS011;3335;43.198;27.918;2023-03-31T04:16:46;26.13;;;13.53;;
6598;SDS011;3335;43.198;27.918;2023-03-31T04:19:13;30.40;;;14.03;;
6598;SDS011;3335;43.198;27.918;2023-03-31T04:21:42;29.20;;;15.27;;
6598;SDS011;3335;43.198;27.918;2023-03-31T04:24:10;30.90;;;14.67;;
6598;SDS011;3335;43.198;27.918;2023-03-31T04:26:41;29.63;;;14.27;;
6598;SDS011;3335;43.198;27.918;2023-03-31T04:29:08;43.37;;;15.50;;
6598;SDS011;3335;43.198;27.918;2023-03-31T04:31:36;28.27;;;14.00;;
6598;SDS011;3335;43.198;27.918;2023-03-31T04:34:07;28.87;;;14.03;;
6598;SDS011;3335;43.198;27.918;2023-03-31T04:36:37;24.43;;;13.03;;
6598;SDS011;3335;43.198;27.918;2023-03-31T04:39:07;27.43;;;13.40;;
6598;SDS011;3335;43.198;27.918;2023-03-31T04:41:35;30.70;;;13.33;;
6598;SDS011;3335;43.198;27.918;2023-03-31T04:44:03;31.47;;;14.10;;
6598;SDS011;3335;43.198;27.918;2023-03-31T04:46:31;24.57;;;13.37;;
6598;SDS011;3335;43.198;27.918;2023-03-31T04:48:58;23.13;;;12.47;;
6598;SDS011;3335;43.198;27.918;2023-03-31T04:51:25;26.27;;;11.63;;
6598;SDS011;3335;43.198;27.918;2023-03-31T04:53:52;25.97;;;10.97;;
6598;SDS011;3335;43.198;27.918;2023-03-31T04:56:19;24.13;;;10.70;;
6598;SDS011;3335;43.198;27.918;2023-03-31T04:58:46;21.70;;;10.77;;
6598;SDS011;3335;43.198;27.918;2023-03-31T05:01:15;20.87;;;10.97;;
6598;SDS011;3335;43.198;27.918;2023-03-31T05:03:43;20.07;;;10.67;;
6598;SDS011;3335;43.198;27.918;2023-03-31T05:06:12;22.73;;;10.60;;
6598;SDS011;3335;43.198;27.918;2023-03-31T05:08:39;20.73;;;12.07;;
6598;SDS011;3335;43.198;27.918;2023-03-31T05:11:06;19.73;;;11.17;;
6598;SDS011;3335;43.198;27.918;2023-03-31T05:13:33;25.63;;;11.77;;
6598;SDS011;3335;43.198;27.918;2023-03-31T05:16:04;31.30;;;12.23;;
6598;SDS011;3335;43.198;27.918;2023-03-31T05:18:34;24.53;;;12.17;;
6598;SDS011;3335;43.198;27.918;2023-03-31T05:21:08;27.83;;;12.13;;
6598;SDS011;3335;43.198;27.918;2023-03-31T05:23:36;27.03;;;12.83;;
6598;SDS011;3335;43.198;27.918;2023-03-31T05:26:03;22.60;;;12.63;;
6598;SDS011;3335;43.198;27.918;2023-03-31T05:28:30;28.53;;;13.13;;
6598;SDS011;3335;43.198;27.918;2023-03-31T05:30:57;30.67;;;12.83;;
6598;SDS011;3335;43.198;27.918;2023-03-31T05:33:24;32.00;;;14.40;;
6598;SDS011;3335;43.198;27.918;2023-03-31T05:35:53;29.73;;;13.80;;
6598;SDS011;3335;43.198;27.918;2023-03-31T05:38:20;32.37;;;13.93;;
6598;SDS011;3335;43.198;27.918;2023-03-31T05:40:47;33.53;;;14.87;;
6598;SDS011;3335;43.198;27.918;2023-03-31T05:43:13;31.07;;;13.53;;
6598;SDS011;3335;43.198;27.918;2023-03-31T05:45:40;36.80;;;14.30;;
6598;SDS011;3335;43.198;27.918;2023-03-31T05:48:07;27.93;;;13.73;;
6598;SDS011;3335;43.198;27.918;2023-03-31T05:50:34;32.97;;;12.93;;
6598;SDS011;3335;43.198;27.918;2023-03-31T05:53:03;30.13;;;13.33;;
6598;SDS011;3335;43.198;27.918;2023-03-31T05:55:30;36.17;;;16.30;;
6598;SDS011;3335;43.198;27.918;2023-03-31T05:57:57;30.60;;;13.10;;
6598;SDS011;3335;43.198;27.918;2023-03-31T06:00:25;23.20;;;12.17;;
6598;SDS011;3335;43.198;27.918;2023-03-31T06:02:53;33.00;;;14.50;;
6598;SDS011;3335;43.198;27.918;2023-03-31T06:05:20;28.77;;;12.60;;
6598;SDS011;3335;43.198;27.918;2023-03-31T06:07:50;34.87;;;13.83;;
6598;SDS011;3335;43.198;27.918;2023-03-31T06:10:19;29.10;;;14.23;;
6598;SDS011;3335;43.198;27.918;2023-03-31T06:12:46;23.97;;;14.23;;
6598;SDS011;3335;43.198;27.918;2023-03-31T06:15:13;29.07;;;13.67;;
6598;SDS011;3335;43.198;27.918;2023-03-31T06:17:40;33.57;;;14.20;;
6598;SDS011;3335;43.198;27.918;2023-03-31T06:20:07;28.90;;;15.10;;
6598;SDS011;3335;43.198;27.918;2023-03-31T06:22:34;34.27;;;14.40;;
6598;SDS011;3335;43.198;27.918;2023-03-31T06:25:01;36.17;;;14.30;;
6598;SDS011;3335;43.198;27.918;2023-03-31T06:27:30;31.37;;;13.60;;
6598;SDS011;3335;43.198;27.918;2023-03-31T06:29:56;35.10;;;15.00;;
6598;SDS011;3335;43.198;27.918;2023-03-31T06:32:23;34.43;;;13.20;;
6598;SDS011;3335;43.198;27.918;2023-03-31T06:34:51;26.53;;;11.67;;
6598;SDS011;3335;43.198;27.918;2023-03-31T06:37:18;30.53;;;12.13;;
6598;SDS011;3335;43.198;27.918;2023-03-31T06:39:45;23.60;;;12.17;;
6598;SDS011;3335;43.198;27.918;2023-03-31T06:42:13;32.00;;;11.77;;
6598;SDS011;3335;43.198;27.918;2023-03-31T06:44:41;23.17;;;11.70;;
6598;SDS011;3335;43.198;27.918;2023-03-31T06:47:08;24.03;;;12.47;;
6598;SDS011;3335;43.198;27.918;2023-03-31T06:49:35;34.27;;;12.87;;
6598;SDS011;3335;43.198;27.918;2023-03-31T06:52:02;34.33;;;13.57;;
6598;SDS011;3335;43.198;27.918;2023-03-31T06:54:29;36.33;;;12.90;;
6598;SDS011;3335;43.198;27.918;2023-03-31T06:56:56;33.50;;;11.70;;
6598;SDS011;3335;43.198;27.918;2023-03-31T06:59:23;29.50;;;12.00;;
6598;SDS011;3335;43.198;27.918;2023-03-31T07:01:52;43.57;;;11.93;;
6598;SDS011;3335;43.198;27.918;2023-03-31T07:04:18;36.50;;;12.67;;
6598;SDS011;3335;43.198;27.918;2023-03-31T07:06:45;21.87;;;9.97;;
6598;SDS011;3335;43.198;27.918;2023-03-31T07:09:12;23.23;;;9.93;;
6598;SDS011;3335;43.198;27.918;2023-03-31T07:11:39;22.83;;;9.20;;
6598;SDS011;3335;43.198;27.918;2023-03-31T07:14:06;25.87;;;9.30;;
6598;SDS011;3335;43.198;27.918;2023-03-31T07:16:33;21.63;;;8.80;;
6598;SDS011;3335;43.198;27.918;2023-03-31T07:19:02;20.17;;;8.70;;
6598;SDS011;3335;43.198;27.918;2023-03-31T07:21:30;19.67;;;9.43;;
6598;SDS011;3335;43.198;27.918;2023-03-31T07:23:57;22.40;;;9.90;;
6598;SDS011;3335;43.198;27.918;2023-03-31T07:26:24;22.00;;;9.67;;
6598;SDS011;3335;43.198;27.918;2023-03-31T07:28:51;22.50;;;8.70;;
6598;SDS011;3335;43.198;27.918;2023-03-31T07:31:20;18.20;;;9.80;;
6598;SDS011;3335;43.198;27.918;2023-03-31T07:33:47;15.93;;;9.17;;
6598;SDS011;3335;43.198;27.918;2023-03-31T07:36:16;18.73;;;9.00;;
6598;SDS011;3335;43.198;27.918;2023-03-31T07:38:44;20.50;;;9.27;;
6598;SDS011;3335;43.198;27.918;2023-03-31T07:41:13;24.63;;;10.10;;
6598;SDS011;3335;43.198;27.918;2023-03-31T07:43:42;23.00;;;9.77;;
6598;SDS011;3335;43.198;27.918;2023-03-31T07:46:13;19.00;;;10.20;;
6598;SDS011;3335;43.198;27.918;2023-03-31T07:48:41;23.17;;;9.73;;
6598;SDS011;3335;43.198;27.918;2023-03-31T07:51:08;18.83;;;9.27;;
6598;SDS011;3335;43.198;27.918;2023-03-31T07:53:36;27.33;;;9.40;;
6598;SDS011;3335;43.198;27.918;2023-03-31T07:56:03;17.97;;;8.27;;
6598;SDS011;3335;43.198;27.918;2023-03-31T07:58:30;14.97;;;8.10;;
6598;SDS011;3335;43.198;27.918;2023-03-31T08:00:57;12.40;;;7.47;;
6598;SDS011;3335;43.198;27.918;2023-03-31T08:03:25;12.00;;;7.43;;
6598;SDS011;3335;43.198;27.918;2023-03-31T08:05:52;16.63;;;8.70;;
6598;SDS011;3335;43.198;27.918;2023-03-31T08:08:19;21.07;;;12.70;;
6598;SDS011;3335;43.198;27.918;2023-03-31T08:10:48;25.77;;;13.63;;
6598;SDS011;3335;43.198;27.918;2023-03-31T08:13:15;24.80;;;12.67;;
6598;SDS011;3335;43.198;27.918;2023-03-31T08:15:42;20.20;;;10.80;;
6598;SDS011;3335;43.198;27.918;2023-03-31T08:18:09;23.57;;;12.17;;
6598;SDS011;3335;43.198;27.918;2023-03-31T08:20:36;22.60;;;12.77;;
6598;SDS011;3335;43.198;27.918;2023-03-31T08:23:03;26.40;;;14.00;;
6598;SDS011;3335;43.198;27.918;2023-03-31T08:25:33;28.00;;;13.97;;
6598;SDS011;3335;43.198;27.918;2023-03-31T08:28:01;23.57;;;13.33;;
6598;SDS011;3335;43.198;27.918;2023-03-31T08:30:28;26.10;;;14.03;;
6598;SDS011;3335;43.198;27.918;2023-03-31T08:32:55;33.83;;;15.37;;
6598;SDS011;3335;43.198;27.918;2023-03-31T08:35:22;24.87;;;14.40;;
6598;SDS011;3335;43.198;27.918;2023-03-31T08:37:49;22.43;;;13.30;;
6598;SDS011;3335;43.198;27.918;2023-03-31T08:40:17;26.60;;;15.33;;
6598;SDS011;3335;43.198;27.918;2023-03-31T08:42:48;37.63;;;15.17;;
6598;SDS011;3335;43.198;27.918;2023-03-31T08:45:19;35.13;;;15.07;;
6598;SDS011;3335;43.198;27.918;2023-03-31T08:47:49;27.77;;;13.93;;
6598;SDS011;3335;43.198;27.918;2023-03-31T08:50:20;27.60;;;14.67;;
6598;SDS011;3335;43.198;27.918;2023-03-31T08:52:51;21.00;;;13.33;;
6598;SDS011;3335;43.198;27.918;2023-03-31T08:55:26;26.60;;;13.03;;
6598;SDS011;3335;43.198;27.918;2023-03-31T08:57:57;24.97;;;13.30;;
6598;SDS011;3335;43.198;27.918;2023-03-31T09:00:34;21.47;;;12.33;;
6598;SDS011;3335;43.198;27.918;2023-03-31T09:03:08;27.43;;;15.60;;
6598;SDS011;3335;43.198;27.918;2023-03-31T09:05:44;21.90;;;13.00;;
6598;SDS011;3335;43.198;27.918;2023-03-31T09:08:31;24.80;;;13.33;;
6598;SDS011;3335;43.198;27.918;2023-03-31T09:11:12;27.17;;;14.77;;
6598;SDS011;3335;43.198;27.918;2023-03-31T09:16:34;25.93;;;15.03;;
6598;SDS011;3335;43.198;27.918;2023-03-31T09:19:10;27.50;;;14.83;;
6598;SDS011;3335;43.198;27.918;2023-03-31T09:21:42;30.17;;;16.00;;
6598;SDS011;3335;43.198;27.918;2023-03-31T09:24:12;31.47;;;16.63;;
6598;SDS011;3335;43.198;27.918;2023-03-31T09:26:44;29.47;;;17.77;;
6598;SDS011;3335;43.198;27.918;2023-03-31T09:29:16;30.77;;;16.43;;
6598;SDS011;3335;43.198;27.918;2023-03-31T09:31:49;27.40;;;16.13;;
6598;SDS011;3335;43.198;27.918;2023-03-31T09:34:21;27.37;;;15.47;;
6598;SDS011;3335;43.198;27.918;2023-03-31T09:36:50;27.50;;;15.77;;
6598;SDS011;3335;43.198;27.918;2023-03-31T09:39:17;29.47;;;15.90;;
6598;SDS011;3335;43.198;27.918;2023-03-31T09:41:45;24.80;;;14.33;;
6598;SDS011;3335;43.198;27.918;2023-03-31T09:44:20;24.50;;;13.80;;
6598;SDS011;3335;43.198;27.918;2023-03-31T09:46:51;23.70;;;12.27;;
6598;SDS011;3335;43.198;27.918;2023-03-31T09:49:20;24.73;;;14.00;;
6598;SDS011;3335;43.198;27.918;2023-03-31T09:51:51;23.67;;;12.50;;
6598;SDS011;3335;43.198;27.918;2023-03-31T09:54:26;22.87;;;12.57;;
6598;SDS011;3335;43.198;27.918;2023-03-31T09:56:57;28.23;;;14.63;;
6598;SDS011;3335;43.198;27.918;2023-03-31T09:59:29;27.67;;;15.40;;
6598;SDS011;3335;43.198;27.918;2023-03-31T10:02:00;34.07;;;18.93;;
6598;SDS011;3335;43.198;27.918;2023-03-31T10:04:31;30.07;;;18.57;;
6598;SDS011;3335;43.198;27.918;2023-03-31T10:07:00;27.07;;;15.87;;
6598;SDS011;3335;43.198;27.918;2023-03-31T10:09:29;32.60;;;17.07;;
6598;SDS011;3335;43.198;27.918;2023-03-31T10:12:02;28.40;;;15.00;;
6598;SDS011;3335;43.198;27.918;2023-03-31T10:14:32;32.90;;;14.87;;
6598;SDS011;3335;43.198;27.918;2023-03-31T10:17:11;29.20;;;15.57;;
6598;SDS011;3335;43.198;27.918;2023-03-31T10:19:46;30.30;;;17.57;;
6598;SDS011;3335;43.198;27.918;2023-03-31T10:22:14;28.83;;;17.07;;
6598;SDS011;3335;43.198;27.918;2023-03-31T10:24:43;26.03;;;15.80;;
6598;SDS011;3335;43.198;27.918;2023-03-31T10:27:17;31.87;;;15.90;;
6598;SDS011;3335;43.198;27.918;2023-03-31T10:29:50;26.50;;;13.97;;
6598;SDS011;3335;43.198;27.918;2023-03-31T10:32:20;26.80;;;14.90;;
6598;SDS011;3335;43.198;27.918;2023-03-31T10:34:50;26.80;;;15.57;;
6598;SDS011;3335;43.198;27.918;2023-03-31T10:37:18;27.20;;;14.37;;
6598;SDS011;3335;43.198;27.918;2023-03-31T10:39:47;22.67;;;14.80;;
6598;SDS011;3335;43.198;27.918;2023-03-31T10:42:22;27.60;;;15.97;;
6598;SDS011;3335;43.198;27.918;2023-03-31T10:44:53;26.57;;;16.13;;
6598;SDS011;3335;43.198;27.918;2023-03-31T10:47:39;32.20;;;15.20;;
6598;SDS011;3335;43.198;27.918;2023-03-31T10:50:12;25.27;;;13.90;;
6598;SDS011;3335;43.198;27.918;2023-03-31T10:52:43;25.27;;;13.77;;
6598;SDS011;3335;43.198;27.918;2023-03-31T10:55:11;22.33;;;13.70;;
6598;SDS011;3335;43.198;27.918;2023-03-31T10:57:41;24.00;;;12.37;;
6598;SDS011;3335;43.198;27.918;2023-03-31T11:00:17;22.83;;;12.80;;
6598;SDS011;3335;43.198;27.918;2023-03-31T11:03:05;22.33;;;14.30;;
6598;SDS011;3335;43.198;27.918;2023-03-31T11:05:45;25.60;;;14.93;;
6598;SDS011;3335;43.198;27.918;2023-03-31T11:08:23;23.43;;;14.30;;
6598;SDS011;3335;43.198;27.918;2023-03-31T11:11:07;21.90;;;14.20;;
6598;SDS011;3335;43.198;27.918;2023-03-31T11:13:43;19.07;;;11.20;;
6598;SDS011;3335;43.198;27.918;2023-03-31T11:16:17;23.13;;;12.13;;
6598;SDS011;3335;43.198;27.918;2023-03-31T11:18:56;25.43;;;12.93;;
6598;SDS011;3335;43.198;27.918;2023-03-31T11:21:40;22.10;;;13.70;;
6598;SDS011;3335;43.198;27.918;2023-03-31T11:24:20;30.03;;;16.63;;
6598;SDS011;3335;43.198;27.918;2023-03-31T11:26:58;25.30;;;16.57;;
6598;SDS011;3335;43.198;27.918;2023-03-31T11:29:34;28.07;;;17.33;;
6598;SDS011;3335;43.198;27.918;2023-03-31T11:32:19;29.17;;;17.10;;
6598;SDS011;3335;43.198;27.918;2023-03-31T11:35:02;34.67;;;19.83;;
6598;SDS011;3335;43.198;27.918;2023-03-31T11:37:53;39.17;;;17.47;;
6598;SDS011;3335;43.198;27.918;2023-03-31T11:43:26;28.17;;;16.20;;
6598;SDS011;3335;43.198;27.918;2023-03-31T11:45:57;22.30;;;14.20;;
6598;SDS011;3335;43.198;27.918;2023-03-31T11:48:30;22.03;;;11.87;;
6598;SDS011;3335;43.198;27.918;2023-03-31T11:51:06;17.33;;;9.90;;
6598;SDS011;3335;43.198;27.918;2023-03-31T11:53:39;15.17;;;8.93;;
6598;SDS011;3335;43.198;27.918;2023-03-31T11:56:10;12.60;;;8.83;;
6598;SDS011;3335;43.198;27.918;2023-03-31T11:58:39;14.03;;;8.10;;
6598;SDS011;3335;43.198;27.918;2023-03-31T12:01:13;16.87;;;8.57;;
6598;SDS011;3335;43.198;27.918;2023-03-31T12:03:47;12.97;;;8.10;;
6598;SDS011;3335;43.198;27.918;2023-03-31T12:06:23;15.07;;;7.20;;
6598;SDS011;3335;43.198;27.918;2023-03-31T12:09:00;12.50;;;7.17;;
6598;SDS011;3335;43.198;27.918;2023-03-31T12:11:34;13.00;;;6.70;;
6598;SDS011;3335;43.198;27.918;2023-03-31T12:14:12;12.87;;;6.37;;
6598;SDS011;3335;43.198;27.918;2023-03-31T12:16:50;12.40;;;7.33;;
6598;SDS011;3335;43.198;27.918;2023-03-31T12:19:20;13.77;;;6.87;;
6598;SDS011;3335;43.198;27.918;2023-03-31T12:21:54;10.97;;;6.93;;
6598;SDS011;3335;43.198;27.918;2023-03-31T12:24:24;11.97;;;7.70;;
6598;SDS011;3335;43.198;27.918;2023-03-31T12:26:54;14.63;;;7.03;;
6598;SDS011;3335;43.198;27.918;2023-03-31T12:29:29;14.83;;;8.83;;
6598;SDS011;3335;43.198;27.918;2023-03-31T12:32:00;15.90;;;10.27;;
6598;SDS011;3335;43.198;27.918;2023-03-31T12:34:32;20.30;;;10.07;;
6598;SDS011;3335;43.198;27.918;2023-03-31T12:37:12;12.30;;;7.73;;
6598;SDS011;3335;43.198;27.918;2023-03-31T12:39:56;9.93;;;6.40;;
6598;SDS011;3335;43.198;27.918;2023-03-31T12:42:49;13.80;;;6.63;;
6598;SDS011;3335;43.198;27.918;2023-03-31T12:45:26;9.90;;;6.63;;
6598;SDS011;3335;43.198;27.918;2023-03-31T12:50:52;16.13;;;8.30;;
6598;SDS011;3335;43.198;27.918;2023-03-31T12:53:32;16.60;;;6.83;;
6598;SDS011;3335;43.198;27.918;2023-03-31T12:56:09;14.20;;;6.17;;
6598;SDS011;3335;43.198;27.918;2023-03-31T12:58:37;13.67;;;6.77;;
6598;SDS011;3335;43.198;27.918;2023-03-31T13:01:11;15.87;;;7.00;;
6598;SDS011;3335;43.198;27.918;2023-03-31T13:03:44;20.00;;;7.10;;
6598;SDS011;3335;43.198;27.918;2023-03-31T13:12:07;13.57;;;6.53;;
6598;SDS011;3335;43.198;27.918;2023-03-31T13:14:38;14.60;;;6.53;;
6598;SDS011;3335;43.198;27.918;2023-03-31T13:17:12;18.70;;;6.27;;
6598;SDS011;3335;43.198;27.918;2023-03-31T13:19:47;10.60;;;5.70;;
6598;SDS011;3335;43.198;27.918;2023-03-31T13:22:26;13.30;;;5.90;;
6598;SDS011;3335;43.198;27.918;2023-03-31T13:28:13;17.60;;;6.43;;
6598;SDS011;3335;43.198;27.918;2023-03-31T13:30:46;15.20;;;6.83;;
6598;SDS011;3335;43.198;27.918;2023-03-31T13:33:17;10.50;;;5.60;;
6598;SDS011;3335;43.198;27.918;2023-03-31T13:35:47;10.53;;;6.33;;
6598;SDS011;3335;43.198;27.918;2023-03-31T13:38:21;14.97;;;6.63;;
6598;SDS011;3335;43.198;27.918;2023-03-31T13:41:00;16.80;;;7.40;;
6598;SDS011;3335;43.198;27.918;2023-03-31T13:43:39;15.43;;;7.57;;
6598;SDS011;3335;43.198;27.918;2023-03-31T13:49:25;15.03;;;7.47;;
6598;SDS011;3335;43.198;27.918;2023-03-31T13:52:18;17.63;;;8.30;;
6598;SDS011;3335;43.198;27.918;2023-03-31T13:55:01;20.47;;;8.70;;
6598;SDS011;3335;43.198;27.918;2023-03-31T13:57:58;12.50;;;8.37;;
6598;SDS011;3335;43.198;27.918;2023-03-31T14:00:49;15.87;;;8.10;;
6598;SDS011;3335;43.198;27.918;2023-03-31T14:03:28;14.80;;;8.77;;
6598;SDS011;3335;43.198;27.918;2023-03-31T14:06:04;19.00;;;9.73;;
6598;SDS011;3335;43.198;27.918;2023-03-31T14:08:39;27.67;;;10.97;;
6598;SDS011;3335;43.198;27.918;2023-03-31T14:11:16;21.03;;;9.30;;
6598;SDS011;3335;43.198;27.918;2023-03-31T14:13:58;16.90;;;9.37;;
6598;SDS011;3335;43.198;27.918;2023-03-31T14:16:31;20.20;;;8.83;;
6598;SDS011;3335;43.198;27.918;2023-03-31T14:19:14;22.03;;;11.97;;
6598;SDS011;3335;43.198;27.918;2023-03-31T14:22:02;14.30;;;7.37;;
6598;SDS011;3335;43.198;27.918;2023-03-31T14:24:36;19.63;;;8.03;;
6598;SDS011;3335;43.198;27.918;2023-03-31T14:27:10;17.27;;;7.57;;
6598;SDS011;3335;43.198;27.918;2023-03-31T14:29:51;21.70;;;7.93;;
6598;SDS011;3335;43.198;27.918;2023-03-31T14:32:28;17.47;;;7.73;;
6598;SDS011;3335;43.198;27.918;2023-03-31T14:35:08;16.90;;;8.17;;
6598;SDS011;3335;43.198;27.918;2023-03-31T14:37:51;24.70;;;8.40;;
6598;SDS011;3335;43.198;27.918;2023-03-31T14:40:19;21.30;;;8.17;;
6598;SDS011;3335;43.198;27.918;2023-03-31T14:42:46;21.43;;;8.60;;
6598;SDS011;3335;43.198;27.918;2023-03-31T14:45:17;24.73;;;7.83;;
6598;SDS011;3335;43.198;27.918;2023-03-31T14:47:52;22.87;;;8.37;;
6598;SDS011;3335;43.198;27.918;2023-03-31T14:50:21;22.13;;;7.90;;
6598;SDS011;3335;43.198;27.918;2023-03-31T14:52:53;15.83;;;7.07;;
6598;SDS011;3335;43.198;27.918;2023-03-31T14:55:21;12.63;;;6.97;;
6598;SDS011;3335;43.198;27.918;2023-03-31T14:57:51;28.47;;;8.90;;
6598;SDS011;3335;43.198;27.918;2023-03-31T15:00:23;17.00;;;7.97;;
6598;SDS011;3335;43.198;27.918;2023-03-31T15:02:52;16.50;;;9.30;;
6598;SDS011;3335;43.198;27.918;2023-03-31T15:05:22;24.43;;;10.73;;
6598;SDS011;3335;43.198;27.918;2023-03-31T15:07:55;28.27;;;9.70;;
6598;SDS011;3335;43.198;27.918;2023-03-31T15:10:23;25.93;;;9.17;;
6598;SDS011;3335;43.198;27.918;2023-03-31T15:12:50;17.37;;;8.80;;
6598;SDS011;3335;43.198;27.918;2023-03-31T15:15:19;27.27;;;8.63;;
6598;SDS011;3335;43.198;27.918;2023-03-31T15:17:47;14.70;;;8.43;;
6598;SDS011;3335;43.198;27.918;2023-03-31T15:20:24;17.33;;;8.40;;
6598;SDS011;3335;43.198;27.918;2023-03-31T15:22:53;18.57;;;9.27;;
6598;SDS011;3335;43.198;27.918;2023-03-31T15:25:21;23.33;;;11.53;;
6598;SDS011;3335;43.198;27.918;2023-03-31T15:27:52;22.13;;;11.37;;
6598;SDS011;3335;43.198;27.918;2023-03-31T15:30:22;21.47;;;11.40;;
6598;SDS011;3335;43.198;27.918;2023-03-31T15:32:52;18.60;;;10.33;;
6598;SDS011;3335;43.198;27.918;2023-03-31T15:35:20;26.23;;;9.50;;
6598;SDS011;3335;43.198;27.918;2023-03-31T15:37:50;25.70;;;10.17;;
6598;SDS011;3335;43.198;27.918;2023-03-31T15:40:21;26.70;;;9.50;;